Time;durP1;ratioP1;P1;durP2;ratioP2;P2;SDS_P1;SDS_P2;PMS_P1;PMS_P2;Temp;Humidity;BMP_temperature;BMP_pressure;BME280_temperature;BME280_humidity;BME280_pressure;Samples;Min_cycle;Max_cycle;Signal;HPM_P1;HPM_P2
2023/07/13 00:01:56;;;;;;;9.80;2.40;;;;;;;19.55;49.03;101333.44;4967638;28;122803;-85
2023/07/13 00:04:25;;;;;;;5.05;2.00;;;;;;;19.52;49.11;101339.03;4957694;28;122115;-84
2023/07/13 00:06:53;;;;;;;5.95;2.05;;;;;;;19.49;49.01;101341.94;4964791;28;112363;-83
2023/07/13 00:09:21;;;;;;;6.28;1.80;;;;;;;19.44;49.29;101346.81;4951137;28;113410;-85
2023/07/13 00:11:55;;;;;;;5.28;2.20;;;;;;;19.38;49.25;101352.63;4963240;28;123352;-83
2023/07/13 00:14:25;;;;;;;9.05;2.30;;;;;;;19.35;49.23;101342.13;4958689;28;123224;-83
2023/07/13 00:16:53;;;;;;;4.43;1.80;;;;;;;19.31;49.25;101346.00;4975424;28;111973;-84
2023/07/13 00:19:20;;;;;;;3.85;2.00;;;;;;;19.29;49.38;101342.56;4972240;28;112037;-84
2023/07/13 00:21:47;;;;;;;8.38;2.00;;;;;;;19.24;49.52;101335.72;4968117;28;123422;-83
2023/07/13 00:24:21;;;;;;;5.20;1.90;;;;;;;19.23;49.58;101350.13;4981234;28;123805;-83
2023/07/13 00:26:49;;;;;;;5.43;1.90;;;;;;;19.21;49.81;101352.06;4937895;28;115257;-82
2023/07/13 00:29:16;;;;;;;5.78;1.92;;;;;;;19.19;49.85;101359.38;4942407;28;113709;-84
2023/07/13 00:31:44;;;;;;;4.35;1.90;;;;;;;19.19;49.78;101359.38;4936073;28;125018;-83
2023/07/13 00:34:11;;;;;;;4.78;1.80;;;;;;;19.17;49.77;101355.94;4976904;28;123034;-83
2023/07/13 00:36:39;;;;;;;5.22;1.80;;;;;;;19.15;49.85;101352.50;4951658;28;115407;-83
2023/07/13 00:39:06;;;;;;;6.38;2.10;;;;;;;19.14;49.78;101350.81;4958502;28;114317;-83
2023/07/13 00:41:33;;;;;;;5.30;2.00;;;;;;;19.16;49.73;101353.38;4950162;28;125748;-83
2023/07/13 00:44:00;;;;;;;5.25;1.88;;;;;;;19.16;49.90;101353.38;4956008;28;124213;-85
2023/07/13 00:46:33;;;;;;;4.85;1.85;;;;;;;19.16;50.30;101353.38;4960632;28;115279;-83
2023/07/13 00:49:10;;;;;;;6.10;1.97;;;;;;;19.14;50.03;101342.75;4952430;28;113444;-83
2023/07/13 00:51:42;;;;;;;6.00;2.17;;;;;;;19.13;49.95;101343.69;4942679;28;122979;-83
2023/07/13 00:54:13;;;;;;;6.10;1.90;;;;;;;19.11;50.06;101345.63;4967482;28;123934;-82
2023/07/13 00:56:43;;;;;;;7.47;2.10;;;;;;;19.09;50.01;101350.28;4940072;28;114031;-82
2023/07/13 00:59:12;;;;;;;5.43;1.88;;;;;;;19.07;50.10;101354.91;4953368;28;115222;-82
2023/07/13 01:01:39;;;;;;;6.05;2.20;;;;;;;19.05;50.16;101351.47;4941700;28;125761;-82
2023/07/13 01:04:07;;;;;;;5.15;1.90;;;;;;;19.02;50.27;101357.06;4944194;28;123875;-83
2023/07/13 01:06:37;;;;;;;5.57;1.85;;;;;;;19.01;50.37;101355.34;4939025;28;115371;-83
2023/07/13 01:09:07;;;;;;;4.63;2.20;;;;;;;19.02;50.42;101357.94;4921544;28;114993;-83
2023/07/13 01:11:34;;;;;;;7.40;2.00;;;;;;;19.02;50.58;101362.41;4932602;28;125418;-82
2023/07/13 01:14:03;;;;;;;4.88;2.00;;;;;;;19.02;50.58;101360.63;4936407;28;125926;-82
2023/07/13 01:16:33;;;;;;;5.32;1.77;;;;;;;19.02;50.49;101357.06;4934789;28;115348;-83
2023/07/13 01:19:03;;;;;;;5.38;1.90;;;;;;;19.01;50.62;101355.34;4936852;28;112967;-83
2023/07/13 01:21:33;;;;;;;4.07;2.03;;;;;;;18.99;50.54;101358.13;4937338;28;123336;-83
2023/07/13 01:24:00;;;;;;;3.13;1.85;;;;;;;18.98;50.58;101360.94;4953209;28;124201;-83
2023/07/13 01:26:27;;;;;;;3.92;1.77;;;;;;;18.97;50.61;101364.59;4950426;28;116592;-84
2023/07/13 01:28:56;;;;;;;5.20;1.88;;;;;;;18.94;50.64;101370.19;4955819;28;115852;-83
2023/07/13 01:31:23;;;;;;;5.43;2.00;;;;;;;18.91;50.71;101359.66;4958403;28;125074;-83
2023/07/13 01:33:51;;;;;;;8.52;1.80;;;;;;;18.89;50.85;101350.84;4982030;28;124605;-83
2023/07/13 01:36:21;;;;;;;6.57;1.95;;;;;;;18.88;50.71;101359.88;4963817;28;114448;-83
2023/07/13 01:38:48;;;;;;;5.60;1.92;;;;;;;18.85;50.88;101359.16;4949410;28;112858;-83
2023/07/13 01:41:15;;;;;;;4.55;1.98;;;;;;;18.83;50.98;101350.31;4942252;28;125251;-85
2023/07/13 01:43:43;;;;;;;4.30;1.83;;;;;;;18.81;51.02;101354.94;4943376;28;125124;-83
2023/07/13 01:46:10;;;;;;;7.18;1.90;;;;;;;18.80;51.15;101358.59;4976270;28;114549;-83
2023/07/13 01:48:51;;;;;;;5.60;1.80;;;;;;;18.79;51.44;101350.63;4960941;28;113417;-84
2023/07/13 01:51:19;;;;;;;6.70;2.20;;;;;;;18.77;51.21;101358.78;4959278;28;125105;-84
2023/07/13 01:53:46;;;;;;;4.47;2.25;;;;;;;18.75;51.29;101354.50;4952759;28;123334;-83
2023/07/13 01:56:13;;;;;;;4.80;1.80;;;;;;;18.72;51.30;101354.72;4943281;28;113265;-82
2023/07/13 01:58:41;;;;;;;5.05;1.90;;;;;;;18.71;51.49;101353.88;4942519;28;112787;-82
2023/07/13 02:01:08;;;;;;;6.15;1.95;;;;;;;18.69;51.54;101350.44;4958682;28;123390;-83
2023/07/13 02:03:35;;;;;;;5.10;1.90;;;;;;;18.67;51.46;101357.75;4960200;28;123899;-85
2023/07/13 02:06:02;;;;;;;6.28;1.85;;;;;;;18.66;51.60;101350.63;4932191;28;113875;-83
2023/07/13 02:08:32;;;;;;;6.65;2.20;;;;;;;18.66;51.68;101358.69;4944041;28;114350;-83
2023/07/13 02:10:59;;;;;;;6.25;2.38;;;;;;;18.62;51.54;101367.94;4954940;28;124345;-83
2023/07/13 02:13:27;;;;;;;7.35;2.45;;;;;;;18.61;51.88;101363.50;4960108;28;126022;-85
2023/07/13 02:15:54;;;;;;;5.45;2.38;;;;;;;18.58;51.85;101358.38;4943419;28;113386;-82
2023/07/13 02:18:21;;;;;;;4.55;2.35;;;;;;;18.58;51.82;101363.75;4966248;28;114156;-83
2023/07/13 02:20:49;;;;;;;6.03;2.60;;;;;;;18.55;51.90;101363.97;4974919;28;126307;-85
2023/07/13 02:23:16;;;;;;;6.47;3.00;;;;;;;18.53;52.15;101360.53;4974578;28;123134;-82
2023/07/13 02:25:43;;;;;;;5.00;3.00;;;;;;;18.52;51.96;101358.81;4954459;28;112541;-82
2023/07/13 02:28:10;;;;;;;7.80;3.40;;;;;;;18.51;52.18;101357.09;4947340;28;112115;-83
2023/07/13 02:30:38;;;;;;;8.40;3.03;;;;;;;18.49;52.02;101355.38;4955542;28;123884;-83
2023/07/13 02:33:05;;;;;;;8.27;3.38;;;;;;;18.46;52.26;101355.59;4952696;28;123508;-83
2023/07/13 02:35:33;;;;;;;5.80;2.80;;;;;;;18.44;52.40;101365.59;4930899;28;115034;-82
2023/07/13 02:38:00;;;;;;;7.95;2.92;;;;;;;18.42;52.61;101359.47;4979694;28;114360;-83
2023/07/13 02:40:27;;;;;;;7.53;3.20;;;;;;;18.42;52.59;101370.19;4953696;28;124421;-84
2023/07/13 02:42:54;;;;;;;7.30;3.00;;;;;;;18.42;52.62;101366.63;4940469;28;123801;-83
2023/07/13 02:45:21;;;;;;;9.25;2.90;;;;;;;18.40;52.44;101361.41;4937166;28;115132;-82
2023/07/13 02:47:48;;;;;;;7.65;2.92;;;;;;;18.39;52.61;101373.09;4960274;28;114256;-83
2023/07/13 02:50:17;;;;;;;5.30;2.67;;;;;;;18.38;52.78;101374.03;4955997;28;125637;-83
2023/07/13 02:52:44;;;;;;;7.55;2.20;;;;;;;18.36;53.16;101365.25;4960909;28;124028;-83
2023/07/13 02:55:12;;;;;;;6.25;2.58;;;;;;;18.36;52.92;101370.59;4961118;28;115107;-83
2023/07/13 02:57:39;;;;;;;5.90;2.38;;;;;;;18.35;52.98;101374.28;4958997;28;112134;-83
2023/07/13 03:00:07;;;;;;;6.85;2.33;;;;;;;18.35;53.06;101379.63;4943634;28;123491;-84
2023/07/13 03:02:35;;;;;;;5.72;2.20;;;;;;;18.35;53.13;101374.28;4962896;28;123830;-83
2023/07/13 03:05:02;;;;;;;8.95;2.65;;;;;;;18.33;53.10;101376.19;4946489;28;116705;-83
2023/07/13 03:07:32;;;;;;;6.07;2.35;;;;;;;18.31;53.39;101372.78;4947775;28;113637;-85
2023/07/13 03:09:59;;;;;;;10.73;3.17;;;;;;;18.29;53.24;101377.38;4968510;28;123325;-83
2023/07/13 03:12:37;;;;;;;9.43;2.40;;;;;;;18.28;53.19;101378.34;4941283;28;126165;-84
2023/07/13 03:15:09;;;;;;;6.13;2.40;;;;;;;18.27;53.30;101392.69;4954690;28;113677;-83
2023/07/13 03:17:39;;;;;;;6.63;2.55;;;;;;;18.26;53.24;101393.66;4940489;28;115297;-83
2023/07/13 03:20:08;;;;;;;6.68;2.65;;;;;;;18.24;53.42;101395.59;4934580;28;124764;-85
2023/07/13 03:22:36;;;;;;;5.25;2.33;;;;;;;18.23;53.45;101401.91;4947597;28;125549;-84
2023/07/13 03:25:05;;;;;;;5.97;2.50;;;;;;;18.22;53.52;101389.50;4957552;28;114406;-84
2023/07/13 03:27:32;;;;;;;7.82;2.60;;;;;;;18.20;53.48;101386.06;4956652;28;113565;-85
2023/07/13 03:29:59;;;;;;;6.78;2.50;;;;;;;18.18;53.81;101383.47;4953885;28;123236;-84
2023/07/13 03:32:26;;;;;;;5.05;2.50;;;;;;;18.17;54.00;101379.06;4970380;28;125903;-85
2023/07/13 03:34:54;;;;;;;8.23;2.42;;;;;;;18.17;53.80;101391.63;4953359;28;115054;-83
2023/07/13 03:37:21;;;;;;;4.72;2.00;;;;;;;18.15;54.04;101401.59;4965915;28;115083;-83
2023/07/13 03:39:49;;;;;;;6.85;2.00;;;;;;;18.16;53.88;101400.59;4943295;28;125004;-83
2023/07/13 03:42:18;;;;;;;8.00;2.13;;;;;;;18.15;53.92;101398.91;4943757;28;123948;-83
2023/07/13 03:44:51;;;;;;;8.18;2.70;;;;;;;18.14;53.93;101402.53;4956253;28;113737;-84
2023/07/13 03:47:19;;;;;;;6.15;2.40;;;;;;;18.14;54.31;101399.84;4959479;28;114332;-83
2023/07/13 03:49:47;;;;;;;6.95;2.40;;;;;;;18.15;54.10;101398.91;4956133;28;125635;-83
2023/07/13 03:52:14;;;;;;;7.15;2.40;;;;;;;18.15;54.12;101401.59;4958624;28;124931;-84
2023/07/13 03:54:42;;;;;;;8.30;2.45;;;;;;;18.14;54.37;101407.91;4958573;28;116150;-83
2023/07/13 03:57:09;;;;;;;7.45;2.45;;;;;;;18.14;54.33;101413.25;4956488;28;116152;-83
2023/07/13 03:59:36;;;;;;;6.65;1.80;;;;;;;18.15;54.33;101409.63;4957090;28;125069;-83
2023/07/13 04:02:04;;;;;;;5.60;2.65;;;;;;;18.16;54.11;101416.69;4940892;28;125118;-83
2023/07/13 04:04:33;;;;;;;10.20;2.33;;;;;;;18.17;54.36;101418.44;4958791;28;112386;-83
2023/07/13 04:07:01;;;;;;;7.50;2.38;;;;;;;18.16;54.44;101411.34;4958996;28;114735;-84
2023/07/13 04:09:28;;;;;;;7.22;2.10;;;;;;;18.17;54.52;101415.75;4939731;28;125224;-83
2023/07/13 04:11:55;;;;;;;5.80;2.33;;;;;;;18.17;54.61;101418.44;4957201;28;126197;-83
2023/07/13 04:14:22;;;;;;;8.40;2.42;;;;;;;18.19;54.41;101416.50;4958199;28;114314;-83
2023/07/13 04:16:49;;;;;;;5.28;2.40;;;;;;;18.19;54.74;101419.19;4958816;28;113008;-83
2023/07/13 04:19:17;;;;;;;7.68;2.50;;;;;;;18.19;54.86;101416.50;4940375;28;123192;-83
2023/07/13 04:21:45;;;;;;;6.93;2.40;;;;;;;18.22;54.82;101424.34;4957983;28;123984;-83
2023/07/13 04:24:12;;;;;;;6.35;2.63;;;;;;;18.22;54.84;101422.50;4941088;28;114924;-83
2023/07/13 04:26:40;;;;;;;5.32;2.30;;;;;;;18.24;54.88;101419.72;4958249;28;113973;-83
2023/07/13 04:29:07;;;;;;;7.03;2.58;;;;;;;18.25;55.10;101429.47;4955190;28;123206;-84
2023/07/13 04:31:34;;;;;;;6.70;2.33;;;;;;;18.25;54.99;101426.78;4956832;28;123352;-83
2023/07/13 04:34:02;;;;;;;7.95;2.58;;;;;;;18.27;55.21;101435.59;4969471;28;114133;-82
2023/07/13 04:36:30;;;;;;;7.43;2.63;;;;;;;18.29;55.14;101422.97;4967979;28;113982;-84
2023/07/13 04:38:57;;;;;;;7.63;2.85;;;;;;;18.31;55.21;101426.41;4942032;28;124785;-82
2023/07/13 04:41:24;;;;;;;7.93;2.72;;;;;;;18.32;55.06;101433.47;4956269;28;125275;-82
2023/07/13 04:43:51;;;;;;;7.25;2.80;;;;;;;18.36;55.31;101434.97;4941875;28;115998;-85
2023/07/13 04:46:21;;;;;;;7.93;3.00;;;;;;;18.39;55.38;101440.13;4949562;28;115889;-83
2023/07/13 04:48:49;;;;;;;9.88;3.17;;;;;;;18.44;55.40;101443.38;4959757;28;123874;-83
2023/07/13 04:51:16;;;;;;;8.13;3.03;;;;;;;18.48;55.48;101444.88;4935750;28;124213;-84
2023/07/13 04:53:43;;;;;;;8.57;2.85;;;;;;;18.53;55.51;101449.06;4956057;28;114652;-83
2023/07/13 04:56:11;;;;;;;8.50;3.00;;;;;;;18.56;55.68;101446.16;4975989;28;113841;-83
2023/07/13 04:58:40;;;;;;;6.13;3.13;;;;;;;18.59;55.73;101445.94;4957079;28;125216;-84
2023/07/13 05:01:09;;;;;;;7.95;3.08;;;;;;;18.65;55.90;101440.16;4943839;28;124193;-84
2023/07/13 05:03:37;;;;;;;9.60;3.45;;;;;;;18.68;55.93;101450.66;4940463;28;115210;-85
2023/07/13 05:06:09;;;;;;;8.68;3.45;;;;;;;18.74;55.95;101450.25;4938892;28;114822;-84
2023/07/13 05:08:37;;;;;;;8.35;3.20;;;;;;;18.78;55.93;101450.88;4964491;28;123034;-85
2023/07/13 05:11:05;;;;;;;9.00;3.30;;;;;;;18.83;55.96;101455.00;4955100;28;123324;-83
2023/07/13 05:13:32;;;;;;;10.82;3.70;;;;;;;18.91;55.96;101456.28;4972585;28;114890;-84
2023/07/13 05:16:02;;;;;;;8.98;3.75;;;;;;;19.00;56.01;101461.00;4972069;28;113850;-83
2023/07/13 05:18:30;;;;;;;11.07;4.45;;;;;;;19.05;56.10;101459.72;4938361;28;124785;-84
2023/07/13 05:21:06;;;;;;;15.60;5.07;;;;;;;19.10;55.97;101464.78;4937500;28;124419;-83
2023/07/13 05:23:34;;;;;;;12.70;5.10;;;;;;;19.15;56.15;101473.34;4939344;28;114857;-83
2023/07/13 05:26:03;;;;;;;12.50;5.35;;;;;;;19.21;56.20;101472.91;4939669;28;114449;-84
2023/07/13 05:28:34;;;;;;;14.15;5.30;;;;;;;19.27;56.08;101474.31;4940014;28;124383;-83
2023/07/13 05:31:01;;;;;;;15.27;5.90;;;;;;;19.33;56.26;101471.16;4940976;28;124155;-84
2023/07/13 05:33:29;;;;;;;19.75;7.28;;;;;;;19.40;56.21;101475.13;4943651;28;114222;-83
2023/07/13 05:35:56;;;;;;;24.23;7.22;;;;;;;19.45;56.27;101477.47;4950940;28;116614;-85
2023/07/13 05:38:23;;;;;;;17.92;7.75;;;;;;;19.49;56.32;101478.97;4964747;28;124008;-84
2023/07/13 05:40:55;;;;;;;18.38;7.22;;;;;;;19.53;56.28;101480.44;4970113;28;123694;-84
2023/07/13 05:43:23;;;;;;;20.08;8.25;;;;;;;19.58;56.30;101489.03;4942965;28;114227;-85
2023/07/13 05:45:53;;;;;;;17.52;7.63;;;;;;;19.63;56.48;101486.88;4956537;28;115362;-83
2023/07/13 05:48:20;;;;;;;18.98;8.27;;;;;;;19.70;56.21;101491.81;4949633;28;123715;-84
2023/07/13 05:50:47;;;;;;;20.30;8.95;;;;;;;19.74;56.29;101499.59;4962405;28;126200;-84
2023/07/13 05:53:15;;;;;;;21.67;9.55;;;;;;;19.79;56.42;101499.22;4936603;28;114775;-84
2023/07/13 05:55:44;;;;;;;21.70;8.93;;;;;;;19.82;56.45;101496.31;4939181;28;113615;-83
2023/07/13 05:58:11;;;;;;;21.45;9.82;;;;;;;19.88;56.36;101501.25;4948627;28;123295;-83
2023/07/13 06:00:39;;;;;;;25.38;10.77;;;;;;;19.95;56.45;101501.66;4940416;28;123579;-84
2023/07/13 06:03:06;;;;;;;22.92;9.88;;;;;;;19.99;56.32;101495.94;4944983;28;113787;-82
2023/07/13 06:05:36;;;;;;;25.67;10.40;;;;;;;20.05;56.58;101496.44;4960782;28;114571;-83
2023/07/13 06:08:05;;;;;;;25.10;10.77;;;;;;;20.10;56.33;101499.63;4959986;28;124450;-82
2023/07/13 06:10:34;;;;;;;22.95;10.82;;;;;;;20.15;56.40;101502.84;4962444;28;124523;-81
2023/07/13 06:13:03;;;;;;;22.60;11.10;;;;;;;20.18;56.39;101513.38;4966182;28;112760;-84
2023/07/13 06:15:30;;;;;;;21.02;10.18;;;;;;;20.21;56.36;101502.38;4948595;28;114370;-82
2023/07/13 06:17:57;;;;;;;19.13;10.05;;;;;;;20.26;56.20;101510.97;4969128;28;125560;-82
2023/07/13 06:20:24;;;;;;;19.85;9.98;;;;;;;20.30;56.18;101515.13;4932275;28;122849;-82
2023/07/13 06:22:52;;;;;;;22.48;10.32;;;;;;;20.35;56.49;101510.28;4958468;28;118116;-82
2023/07/13 06:25:19;;;;;;;19.05;9.73;;;;;;;20.41;56.44;101520.56;4978293;28;114188;-82
2023/07/13 06:27:46;;;;;;;23.65;10.27;;;;;;;20.49;56.36;101521.81;4945785;28;125109;-82
2023/07/13 06:30:13;;;;;;;20.75;9.30;;;;;;;20.54;56.19;101525.88;4937883;28;124606;-82
2023/07/13 06:32:41;;;;;;;19.27;9.50;;;;;;;20.60;56.36;101527.25;4933112;28;113366;-82
2023/07/13 06:35:08;;;;;;;21.65;9.18;;;;;;;20.66;56.27;101523.25;4958593;28;113700;-83
2023/07/13 06:37:35;;;;;;;18.75;9.15;;;;;;;20.73;56.25;101522.66;4962965;28;123896;-82
2023/07/13 06:40:03;;;;;;;22.35;9.43;;;;;;;20.79;56.19;101524.91;4956334;28;124482;-83
2023/07/13 06:42:30;;;;;;;21.95;9.23;;;;;;;20.85;56.06;101522.69;4940193;28;113549;-82
2023/07/13 06:44:58;;;;;;;21.55;9.07;;;;;;;20.89;55.82;101524.16;4952651;28;113574;-83
2023/07/13 06:47:25;;;;;;;18.45;8.55;;;;;;;20.95;55.93;101523.69;4967461;28;124314;-83
2023/07/13 06:49:52;;;;;;;19.40;9.20;;;;;;;21.03;55.98;101532.03;4966960;28;122957;-83
2023/07/13 06:52:19;;;;;;;17.90;9.30;;;;;;;21.11;56.00;101526.88;4963988;28;114467;-83
2023/07/13 06:54:46;;;;;;;20.90;9.35;;;;;;;21.20;55.90;101528.84;4950005;28;115280;-84
2023/07/13 06:57:14;;;;;;;20.92;9.60;;;;;;;21.29;55.74;101532.66;4965657;28;122444;-82
2023/07/13 06:59:41;;;;;;;25.35;9.80;;;;;;;21.36;55.59;101533.00;4947871;28;123546;-82
2023/07/13 07:02:10;;;;;;;22.30;9.95;;;;;;;21.41;55.25;101536.19;4943921;28;113817;-83
2023/07/13 07:04:38;;;;;;;21.02;10.00;;;;;;;21.45;55.37;101537.69;4944063;28;114859;-83
2023/07/13 07:07:06;;;;;;;21.75;10.57;;;;;;;21.48;55.28;101537.47;4952000;28;124415;-83
2023/07/13 07:09:33;;;;;;;16.63;9.43;;;;;;;21.51;55.05;101537.22;4958698;28;121909;-82
2023/07/13 07:12:07;;;;;;;22.08;8.88;;;;;;;21.53;54.89;101546.03;4948844;28;114062;-83
2023/07/13 07:14:42;;;;;;;18.80;9.50;;;;;;;21.55;54.95;101544.09;4943891;28;113123;-82
2023/07/13 07:17:09;;;;;;;20.05;9.82;;;;;;;21.56;54.75;101545.78;4935718;28;123985;-83
2023/07/13 07:19:38;;;;;;;21.30;9.52;;;;;;;21.56;54.73;101545.78;4973863;28;124440;-83
2023/07/13 07:22:06;;;;;;;19.13;8.65;;;;;;;21.58;54.85;101546.50;4954614;28;114131;-82
2023/07/13 07:24:33;;;;;;;21.70;9.63;;;;;;;21.58;54.67;101549.22;4952584;28;114214;-82
2023/07/13 07:27:00;;;;;;;20.38;9.23;;;;;;;21.60;54.58;101545.53;4923965;28;125044;-82
2023/07/13 07:29:30;;;;;;;20.92;9.23;;;;;;;21.62;54.67;101554.38;4951987;28;124039;-83
2023/07/13 07:32:00;;;;;;;17.40;9.00;;;;;;;21.65;54.56;101559.53;4951964;28;115357;-82
2023/07/13 07:34:44;;;;;;;18.95;9.30;;;;;;;21.66;54.43;101555.81;4952740;28;111952;-83
2023/07/13 07:37:13;;;;;;;17.33;8.60;;;;;;;21.65;54.41;101562.22;4950406;28;124010;-83
2023/07/13 07:39:44;;;;;;;19.58;9.77;;;;;;;21.64;54.44;101560.50;4956817;28;122012;-82
2023/07/13 07:42:32;;;;;;;18.75;9.32;;;;;;;21.64;54.55;101557.78;4941176;28;115941;-83
2023/07/13 07:45:00;;;;;;;18.08;9.68;;;;;;;21.64;54.35;101557.78;4947845;28;114789;-83
2023/07/13 07:47:28;;;;;;;20.52;9.00;;;;;;;21.64;54.62;101555.09;4951937;28;123311;-82
2023/07/13 07:49:55;;;;;;;17.30;8.38;;;;;;;21.68;54.53;101559.25;4924916;28;121991;-83
2023/07/13 07:52:23;;;;;;;17.30;9.40;;;;;;;21.73;54.55;101570.53;4969146;28;114728;-83
2023/07/13 07:54:50;;;;;;;17.75;8.93;;;;;;;21.76;54.53;101556.81;4948912;28;113092;-82
2023/07/13 07:57:20;;;;;;;17.63;8.48;;;;;;;21.84;54.62;101564.28;4949800;28;124249;-82
2023/07/13 07:59:50;;;;;;;24.33;8.77;;;;;;;21.92;54.45;101557.25;4974297;28;126535;-83
2023/07/13 08:02:20;;;;;;;20.80;9.02;;;;;;;22.00;54.51;101566.56;4945514;28;115549;-83
2023/07/13 08:04:50;;;;;;;18.85;8.75;;;;;;;22.08;54.50;101566.81;4936957;28;115269;-83
2023/07/13 08:07:20;;;;;;;19.23;8.80;;;;;;;22.15;54.39;101568.00;4957380;28;124768;-83
2023/07/13 08:09:52;;;;;;;19.80;8.52;;;;;;;22.26;54.33;101570.69;4957846;28;124691;-84
2023/07/13 08:12:19;;;;;;;17.50;8.70;;;;;;;22.32;54.06;101570.19;4956849;28;114349;-83
2023/07/13 08:15:10;;;;;;;13.70;7.82;;;;;;;22.42;54.15;101564.03;4935463;28;115643;-83
2023/07/13 08:17:37;;;;;;;19.92;8.95;;;;;;;22.48;53.95;101563.50;4934611;28;125034;-83
2023/07/13 08:20:05;;;;;;;15.57;8.32;;;;;;;22.56;53.92;101558.31;4943999;28;123572;-83
2023/07/13 08:22:32;;;;;;;15.90;8.13;;;;;;;22.65;53.61;101565.63;4923402;28;115066;-82
2023/07/13 08:24:59;;;;;;;16.55;8.60;;;;;;;22.73;53.83;101560.47;4935281;28;114720;-83
2023/07/13 08:27:28;;;;;;;15.13;8.43;;;;;;;22.86;53.69;101562.09;4923541;28;125169;-82
2023/07/13 08:29:56;;;;;;;17.73;8.30;;;;;;;22.97;53.39;101562.03;4956449;28;124993;-83
2023/07/13 08:32:23;;;;;;;15.65;7.97;;;;;;;23.04;53.45;101555.13;4954833;28;114847;-83
2023/07/13 08:34:51;;;;;;;18.67;8.40;;;;;;;23.15;53.12;101556.91;4958440;28;112873;-83
2023/07/13 08:37:19;;;;;;;16.38;7.72;;;;;;;23.25;52.99;101551.56;4952788;28;124245;-83
2023/07/13 08:39:47;;;;;;;14.73;6.80;;;;;;;23.36;53.01;101554.16;4940075;28;124895;-82
2023/07/13 08:42:17;;;;;;;16.10;7.05;;;;;;;23.55;52.83;101549.84;4938485;28;112212;-83
2023/07/13 08:45:11;;;;;;;13.30;6.88;;;;;;;23.73;52.39;101561.69;4933744;28;113126;-83
2023/07/13 08:47:44;;;;;;;13.60;7.18;;;;;;;23.90;52.22;101555.69;4954312;28;125040;-83
2023/07/13 08:50:14;;;;;;;16.75;7.05;;;;;;;24.05;52.11;101560.66;4950849;28;123503;-83
2023/07/13 08:52:43;;;;;;;10.40;6.38;;;;;;;24.20;51.53;101564.69;4949348;28;115282;-82
2023/07/13 08:55:16;;;;;;;13.43;6.30;;;;;;;24.32;51.23;101557.31;4922362;28;115263;-83
2023/07/13 08:57:48;;;;;;;13.38;5.50;;;;;;;24.46;50.75;101564.13;4921377;28;123250;-82
2023/07/13 09:00:16;;;;;;;12.32;5.75;;;;;;;24.53;50.31;101554.47;4935930;28;125354;-82
2023/07/13 09:02:55;;;;;;;14.32;6.05;;;;;;;24.55;50.21;101557.91;4949065;28;115593;-82
2023/07/13 09:05:25;;;;;;;11.88;6.38;;;;;;;24.51;49.69;101561.88;4955340;28;113788;-82
2023/07/13 09:08:29;;;;;;;8.60;5.10;;;;;;;24.43;48.93;101548.16;4972954;28;124957;-82
2023/07/13 09:11:12;;;;;;;10.38;4.97;;;;;;;24.30;48.88;101564.72;4936737;28;124870;-82
2023/07/13 09:13:53;;;;;;;9.60;4.82;;;;;;;24.20;48.98;101564.69;4933278;28;115729;-82
2023/07/13 09:16:21;;;;;;;11.90;5.93;;;;;;;24.23;49.14;101559.00;4935090;28;112638;-82
2023/07/13 09:18:52;;;;;;;15.30;6.43;;;;;;;24.32;49.55;101551.00;4943890;28;123755;-83
2023/07/13 09:21:33;;;;;;;10.77;6.10;;;;;;;24.44;49.20;101539.06;4950740;28;123563;-82
2023/07/13 09:24:24;;;;;;;9.48;4.85;;;;;;;24.58;49.08;101551.34;4942074;28;113867;-83
2023/07/13 09:26:52;;;;;;;9.38;4.60;;;;;;;24.66;48.48;101544.22;4948288;28;113147;-82
2023/07/13 09:29:28;;;;;;;10.07;5.25;;;;;;;24.73;48.63;101549.03;4937440;28;124377;-82
2023/07/13 09:32:00;;;;;;;7.93;4.72;;;;;;;24.79;48.29;101549.34;4946094;28;123445;-82
2023/07/13 09:34:30;;;;;;;6.13;4.70;;;;;;;24.89;48.03;101548.47;4948998;28;113096;-82
2023/07/13 09:36:57;;;;;;;9.18;5.10;;;;;;;24.97;48.02;101557.56;4932534;28;114278;-82
2023/07/13 09:39:31;;;;;;;11.80;4.68;;;;;;;25.09;47.77;101549.25;4936353;28;123854;-84
2023/07/13 09:42:10;;;;;;;10.33;4.90;;;;;;;25.22;47.76;101544.34;4942523;28;123660;-82
2023/07/13 09:44:50;;;;;;;8.18;4.63;;;;;;;25.36;47.26;101551.22;4948742;28;115735;-82
2023/07/13 09:47:29;;;;;;;9.15;5.00;;;;;;;25.51;46.87;101543.44;4953298;28;116259;-82
2023/07/13 09:50:00;;;;;;;8.38;4.65;;;;;;;25.66;47.02;101547.34;4952156;28;123595;-83
2023/07/13 09:52:44;;;;;;;5.93;3.90;;;;;;;25.86;46.50;101547.25;4943430;28;123413;-83
2023/07/13 09:55:36;;;;;;;9.70;4.25;;;;;;;26.05;46.56;101547.16;4940736;28;113698;-83
2023/07/13 09:58:36;;;;;;;9.27;4.25;;;;;;;26.26;46.60;101554.13;4952476;28;114309;-82
2023/07/13 10:01:04;;;;;;;10.02;4.25;;;;;;;26.37;45.81;101556.63;4922534;28;124214;-83
2023/07/13 10:03:41;;;;;;;8.05;3.83;;;;;;;26.39;45.43;101549.16;4976187;28;122002;-83
2023/07/13 10:06:17;;;;;;;7.30;3.50;;;;;;;26.36;45.02;101549.50;4958235;28;114350;-84
2023/07/13 10:08:49;;;;;;;9.23;4.50;;;;;;;26.38;44.89;101552.91;4970681;28;113241;-83
2023/07/13 10:11:22;;;;;;;11.15;4.00;;;;;;;26.37;44.76;101545.75;4936346;28;125010;-84
2023/07/13 10:13:57;;;;;;;8.43;4.32;;;;;;;26.42;44.79;101549.72;4948366;28;123658;-83
2023/07/13 10:16:27;;;;;;;8.23;4.25;;;;;;;26.50;44.95;101551.66;4933076;28;115378;-82
2023/07/13 10:19:17;;;;;;;6.20;3.88;;;;;;;26.60;44.33;101552.47;4973345;28;113320;-83
2023/07/13 10:21:52;;;;;;;7.20;4.00;;;;;;;26.60;43.82;101549.75;4957518;28;124415;-83
2023/07/13 10:24:39;;;;;;;8.38;3.80;;;;;;;26.58;43.85;101559.03;4952495;28;124409;-82
2023/07/13 10:27:16;;;;;;;7.82;4.18;;;;;;;26.60;44.06;101547.03;4956106;28;114184;-83
2023/07/13 10:29:50;;;;;;;7.63;4.20;;;;;;;26.68;43.78;101558.97;4940589;28;114193;-82
2023/07/13 10:32:22;;;;;;;5.93;3.40;;;;;;;26.68;43.71;101545.41;4955921;28;125110;-83
2023/07/13 10:34:52;;;;;;;10.13;4.78;;;;;;;26.72;43.30;101541.34;4964376;28;123810;-84
2023/07/13 10:37:24;;;;;;;7.00;3.88;;;;;;;26.72;43.00;101549.50;4949628;28;115247;-83
2023/07/13 10:39:55;;;;;;;7.55;3.40;;;;;;;26.69;43.30;101544.38;4949608;28;114167;-83
2023/07/13 10:42:39;;;;;;;6.40;3.45;;;;;;;26.63;42.83;101550.44;4966585;28;123480;-83
2023/07/13 10:45:14;;;;;;;5.38;4.15;;;;;;;26.54;42.79;101544.91;4952921;28;125076;-83
2023/07/13 10:47:43;;;;;;;8.05;4.35;;;;;;;26.54;43.20;101553.06;4963086;28;112939;-83
2023/07/13 10:50:20;;;;;;;5.68;3.72;;;;;;;26.58;43.06;101559.88;4954348;28;112767;-83
2023/07/13 10:52:54;;;;;;;6.75;3.30;;;;;;;26.63;42.78;101561.31;4952102;28;124624;-82
2023/07/13 10:55:53;;;;;;;7.60;3.40;;;;;;;26.68;43.17;101565.25;4954482;28;123897;-83
2023/07/13 10:58:27;;;;;;;5.10;3.00;;;;;;;26.76;42.41;101568.03;4904695;28;114898;-82
2023/07/13 11:01:16;;;;;;;7.07;3.23;;;;;;;26.77;42.70;101574.34;4957145;28;115183;-82
2023/07/13 11:03:44;;;;;;;7.68;2.85;;;;;;;26.79;42.33;101567.72;4946303;28;123981;-83
2023/07/13 11:06:16;;;;;;;6.28;3.08;;;;;;;26.80;41.99;101568.56;4953643;28;123073;-84
2023/07/13 11:08:43;;;;;;;8.07;3.05;;;;;;;26.80;41.88;101568.56;4952930;28;115025;-83
2023/07/13 11:11:25;;;;;;;5.03;3.08;;;;;;;26.73;41.62;101567.50;4940554;28;113440;-82
2023/07/13 11:13:53;;;;;;;4.72;2.78;;;;;;;26.64;41.22;101563.03;4953851;28;123573;-82
2023/07/13 11:16:20;;;;;;;5.28;3.10;;;;;;;26.52;41.74;101568.69;4934440;28;122101;-81
2023/07/13 11:18:50;;;;;;;9.27;3.00;;;;;;;26.40;41.52;101578.06;4957437;28;115117;-83
2023/07/13 11:21:19;;;;;;;6.45;2.80;;;;;;;26.28;41.73;101596.44;4957407;28;113969;-82
2023/07/13 11:24:12;;;;;;;9.60;2.85;;;;;;;26.14;41.64;101611.38;4964568;28;123983;-82
2023/07/13 11:26:51;;;;;;;3.92;2.22;;;;;;;26.00;41.60;101620.06;4981376;28;123652;-82
2023/07/13 11:29:18;;;;;;;4.55;2.47;;;;;;;25.79;42.09;101618.41;4979961;28;115081;-82